Glendale Springs, North Carolina
Current Conditions -  °F | °C
As of 7:35 AM on Monday 26 Jan 2015 (Local Time) from KGEV Reporting Station
Light Rain Light Rain  
Wind Chill:   Ceiling: 2500
Heat Index:   Visibility: 5mi
Dew Point:   Wind: 0mph
Humidity: 98%   Direction: NA
Pressure: 29.6"   Gusts: NA
Location:  36.35°N, 81.38°W
Report Text: KGEV 261235Z AUTO 00000KT 5SM -RA SCT017 BKN025 OVC038 01/00 A2960 RMK AO2 T00050002
Loading
Personal Weather Stations






























Interactive Weather Map New forecast layout! Learn more

10-Day Weather Forecast

Advertisements
Track Severe Weather on mobile